sensor_id;sensor_type;location;lat;lon;timestamp;temperature;humidity
2873;DHT22;1444;49.166;7.312;2023-05-07T00:01:59;15.00;98.30
2873;DHT22;1444;49.166;7.312;2023-05-07T00:04:26;15.00;98.50
2873;DHT22;1444;49.166;7.312;2023-05-07T00:06:53;15.00;98.40
2873;DHT22;1444;49.166;7.312;2023-05-07T00:09:20;15.00;98.20
2873;DHT22;1444;49.166;7.312;2023-05-07T00:11:47;14.80;98.60
2873;DHT22;1444;49.166;7.312;2023-05-07T00:14:13;14.80;98.50
2873;DHT22;1444;49.166;7.312;2023-05-07T00:16:40;14.70;99.20
2873;DHT22;1444;49.166;7.312;2023-05-07T00:19:08;14.40;99.90
2873;DHT22;1444;49.166;7.312;2023-05-07T00:21:35;14.30;99.90
2873;DHT22;1444;49.166;7.312;2023-05-07T00:24:02;14.30;99.90
2873;DHT22;1444;49.166;7.312;2023-05-07T00:26:29;14.40;99.90
2873;DHT22;1444;49.166;7.312;2023-05-07T00:28:55;14.50;99.70
2873;DHT22;1444;49.166;7.312;2023-05-07T00:31:22;14.50;99.40
2873;DHT22;1444;49.166;7.312;2023-05-07T00:33:49;14.40;99.60
2873;DHT22;1444;49.166;7.312;2023-05-07T00:36:17;14.30;99.90
2873;DHT22;1444;49.166;7.312;2023-05-07T00:38:43;14.10;99.90
2873;DHT22;1444;49.166;7.312;2023-05-07T00:41:10;13.90;99.90
2873;DHT22;1444;49.166;7.312;2023-05-07T00:43:37;13.90;99.90
2873;DHT22;1444;49.166;7.312;2023-05-07T00:46:04;14.00;99.90
2873;DHT22;1444;49.166;7.312;2023-05-07T00:48:31;14.10;99.90
2873;DHT22;1444;49.166;7.312;2023-05-07T00:50:58;14.10;99.80
2873;DHT22;1444;49.166;7.312;2023-05-07T00:53:26;14.20;99.90
2873;DHT22;1444;49.166;7.312;2023-05-07T00:55:53;14.20;99.90
2873;DHT22;1444;49.166;7.312;2023-05-07T00:58:20;14.20;99.50
2873;DHT22;1444;49.166;7.312;2023-05-07T01:00:47;14.20;99.10
2873;DHT22;1444;49.166;7.312;2023-05-07T01:03:14;14.20;99.00
2873;DHT22;1444;49.166;7.312;2023-05-07T01:05:41;14.20;99.10
2873;DHT22;1444;49.166;7.312;2023-05-07T01:08:09;14.20;99.10
2873;DHT22;1444;49.166;7.312;2023-05-07T01:10:38;14.20;99.00
2873;DHT22;1444;49.166;7.312;2023-05-07T01:13:08;14.10;99.20
2873;DHT22;1444;49.166;7.312;2023-05-07T01:15:35;14.10;99.30
2873;DHT22;1444;49.166;7.312;2023-05-07T01:18:02;14.10;98.80
2873;DHT22;1444;49.166;7.312;2023-05-07T01:20:29;14.10;99.10
2873;DHT22;1444;49.166;7.312;2023-05-07T01:22:57;14.00;98.80
2873;DHT22;1444;49.166;7.312;2023-05-07T01:25:25;13.90;99.00
2873;DHT22;1444;49.166;7.312;2023-05-07T01:27:52;13.90;98.70
2873;DHT22;1444;49.166;7.312;2023-05-07T01:30:20;13.90;98.70
2873;DHT22;1444;49.166;7.312;2023-05-07T01:32:51;13.90;98.80
2873;DHT22;1444;49.166;7.312;2023-05-07T01:35:19;13.90;98.60
2873;DHT22;1444;49.166;7.312;2023-05-07T01:37:48;13.80;98.70
2873;DHT22;1444;49.166;7.312;2023-05-07T01:40:17;13.80;99.10
2873;DHT22;1444;49.166;7.312;2023-05-07T01:42:44;13.80;99.00
2873;DHT22;1444;49.166;7.312;2023-05-07T01:45:12;13.70;98.70
2873;DHT22;1444;49.166;7.312;2023-05-07T01:47:39;13.70;98.90
2873;DHT22;1444;49.166;7.312;2023-05-07T01:50:07;13.60;98.80
2873;DHT22;1444;49.166;7.312;2023-05-07T01:52:36;13.50;98.80
2873;DHT22;1444;49.166;7.312;2023-05-07T01:55:03;13.50;98.80
2873;DHT22;1444;49.166;7.312;2023-05-07T01:57:31;13.40;98.80
2873;DHT22;1444;49.166;7.312;2023-05-07T01:59:58;13.30;98.80
2873;DHT22;1444;49.166;7.312;2023-05-07T02:02:25;13.30;99.10
2873;DHT22;1444;49.166;7.312;2023-05-07T02:04:51;13.20;99.20
2873;DHT22;1444;49.166;7.312;2023-05-07T02:07:18;13.20;99.30
2873;DHT22;1444;49.166;7.312;2023-05-07T02:09:45;13.30;99.20
2873;DHT22;1444;49.166;7.312;2023-05-07T02:12:11;13.30;99.10
2873;DHT22;1444;49.166;7.312;2023-05-07T02:14:39;13.30;99.20
2873;DHT22;1444;49.166;7.312;2023-05-07T02:17:06;13.30;99.40
2873;DHT22;1444;49.166;7.312;2023-05-07T02:19:33;13.20;99.10
2873;DHT22;1444;49.166;7.312;2023-05-07T02:22:00;13.20;99.00
2873;DHT22;1444;49.166;7.312;2023-05-07T02:24:27;13.30;99.00
2873;DHT22;1444;49.166;7.312;2023-05-07T02:26:53;13.30;99.00
2873;DHT22;1444;49.166;7.312;2023-05-07T02:29:20;13.20;99.80
2873;DHT22;1444;49.166;7.312;2023-05-07T02:31:48;13.20;99.50
2873;DHT22;1444;49.166;7.312;2023-05-07T02:34:16;13.20;99.30
2873;DHT22;1444;49.166;7.312;2023-05-07T02:36:42;13.30;99.00
2873;DHT22;1444;49.166;7.312;2023-05-07T02:39:09;13.20;99.00
2873;DHT22;1444;49.166;7.312;2023-05-07T02:41:36;13.10;99.10
2873;DHT22;1444;49.166;7.312;2023-05-07T02:44:03;13.10;99.00
2873;DHT22;1444;49.166;7.312;2023-05-07T02:46:30;13.10;99.30
2873;DHT22;1444;49.166;7.312;2023-05-07T02:48:58;13.10;99.30
2873;DHT22;1444;49.166;7.312;2023-05-07T02:51:25;13.00;99.00
2873;DHT22;1444;49.166;7.312;2023-05-07T02:53:52;12.90;98.90
2873;DHT22;1444;49.166;7.312;2023-05-07T02:56:19;12.90;98.80
2873;DHT22;1444;49.166;7.312;2023-05-07T02:58:46;12.80;98.70
2873;DHT22;1444;49.166;7.312;2023-05-07T03:01:13;12.80;98.90
2873;DHT22;1444;49.166;7.312;2023-05-07T03:03:40;12.80;98.80
2873;DHT22;1444;49.166;7.312;2023-05-07T03:06:08;12.80;99.10
2873;DHT22;1444;49.166;7.312;2023-05-07T03:08:35;12.80;99.20
2873;DHT22;1444;49.166;7.312;2023-05-07T03:11:01;12.80;99.00
2873;DHT22;1444;49.166;7.312;2023-05-07T03:13:28;12.80;99.20
2873;DHT22;1444;49.166;7.312;2023-05-07T03:15:55;12.90;99.00
2873;DHT22;1444;49.166;7.312;2023-05-07T03:18:22;12.80;98.90
2873;DHT22;1444;49.166;7.312;2023-05-07T03:20:48;12.80;99.00
2873;DHT22;1444;49.166;7.312;2023-05-07T03:23:17;12.80;98.90
2873;DHT22;1444;49.166;7.312;2023-05-07T03:25:43;12.80;98.80
2873;DHT22;1444;49.166;7.312;2023-05-07T03:28:10;12.80;98.30
2873;DHT22;1444;49.166;7.312;2023-05-07T03:30:37;12.80;98.60
2873;DHT22;1444;49.166;7.312;2023-05-07T03:33:03;12.70;98.70
2873;DHT22;1444;49.166;7.312;2023-05-07T03:35:30;12.70;98.70
2873;DHT22;1444;49.166;7.312;2023-05-07T03:37:57;12.70;98.80
2873;DHT22;1444;49.166;7.312;2023-05-07T03:40:25;12.60;98.60
2873;DHT22;1444;49.166;7.312;2023-05-07T03:42:52;12.60;98.50
2873;DHT22;1444;49.166;7.312;2023-05-07T03:45:18;12.60;98.60
2873;DHT22;1444;49.166;7.312;2023-05-07T03:47:45;12.60;98.50
2873;DHT22;1444;49.166;7.312;2023-05-07T03:50:12;12.60;98.50
2873;DHT22;1444;49.166;7.312;2023-05-07T03:52:38;12.60;98.40
2873;DHT22;1444;49.166;7.312;2023-05-07T03:55:06;12.60;98.60
2873;DHT22;1444;49.166;7.312;2023-05-07T03:57:34;12.70;98.50
2873;DHT22;1444;49.166;7.312;2023-05-07T04:00:01;12.70;98.50
2873;DHT22;1444;49.166;7.312;2023-05-07T04:02:29;12.60;98.70
2873;DHT22;1444;49.166;7.312;2023-05-07T04:04:55;12.60;98.40
2873;DHT22;1444;49.166;7.312;2023-05-07T04:07:22;12.60;98.40
2873;DHT22;1444;49.166;7.312;2023-05-07T04:09:49;12.60;98.40
2873;DHT22;1444;49.166;7.312;2023-05-07T04:12:15;12.60;98.40
2873;DHT22;1444;49.166;7.312;2023-05-07T04:14:43;12.60;98.30
2873;DHT22;1444;49.166;7.312;2023-05-07T04:17:11;12.50;98.60
2873;DHT22;1444;49.166;7.312;2023-05-07T04:19:37;12.40;98.60
2873;DHT22;1444;49.166;7.312;2023-05-07T04:22:04;12.40;99.00
2873;DHT22;1444;49.166;7.312;2023-05-07T04:24:31;12.30;99.20
2873;DHT22;1444;49.166;7.312;2023-05-07T04:26:58;12.10;99.40
2873;DHT22;1444;49.166;7.312;2023-05-07T04:29:25;12.10;99.80
2873;DHT22;1444;49.166;7.312;2023-05-07T04:31:54;12.20;99.60
2873;DHT22;1444;49.166;7.312;2023-05-07T04:34:21;12.20;99.50
2873;DHT22;1444;49.166;7.312;2023-05-07T04:36:48;12.30;99.40
2873;DHT22;1444;49.166;7.312;2023-05-07T04:39:15;12.30;99.30
2873;DHT22;1444;49.166;7.312;2023-05-07T04:41:41;12.40;99.50
2873;DHT22;1444;49.166;7.312;2023-05-07T04:44:08;12.50;99.60
2873;DHT22;1444;49.166;7.312;2023-05-07T04:46:34;12.50;99.60
2873;DHT22;1444;49.166;7.312;2023-05-07T04:49:02;12.60;99.70
2873;DHT22;1444;49.166;7.312;2023-05-07T04:51:29;12.60;99.60
2873;DHT22;1444;49.166;7.312;2023-05-07T04:53:58;12.60;99.60
2873;DHT22;1444;49.166;7.312;2023-05-07T04:56:27;12.60;99.70
2873;DHT22;1444;49.166;7.312;2023-05-07T04:58:54;12.60;99.90
2873;DHT22;1444;49.166;7.312;2023-05-07T05:01:21;12.70;99.90
2873;DHT22;1444;49.166;7.312;2023-05-07T05:03:47;12.70;99.90
2873;DHT22;1444;49.166;7.312;2023-05-07T05:06:16;12.80;99.90
2873;DHT22;1444;49.166;7.312;2023-05-07T05:08:42;12.80;99.90
2873;DHT22;1444;49.166;7.312;2023-05-07T05:11:09;12.90;99.90
2873;DHT22;1444;49.166;7.312;2023-05-07T05:13:35;12.90;99.90
2873;DHT22;1444;49.166;7.312;2023-05-07T05:16:02;12.90;99.90
2873;DHT22;1444;49.166;7.312;2023-05-07T05:18:29;13.00;99.90
2873;DHT22;1444;49.166;7.312;2023-05-07T05:20:56;13.10;99.90
2873;DHT22;1444;49.166;7.312;2023-05-07T05:23:24;13.10;99.90
2873;DHT22;1444;49.166;7.312;2023-05-07T05:25:55;12.90;99.90
2873;DHT22;1444;49.166;7.312;2023-05-07T05:28:22;12.80;99.90
2873;DHT22;1444;49.166;7.312;2023-05-07T05:30:48;12.70;99.90
2873;DHT22;1444;49.166;7.312;2023-05-07T05:33:15;12.80;99.90
2873;DHT22;1444;49.166;7.312;2023-05-07T05:35:42;12.90;99.90
2873;DHT22;1444;49.166;7.312;2023-05-07T05:38:09;12.90;99.90
2873;DHT22;1444;49.166;7.312;2023-05-07T05:40:37;13.00;99.90
2873;DHT22;1444;49.166;7.312;2023-05-07T05:43:03;13.00;99.90
2873;DHT22;1444;49.166;7.312;2023-05-07T05:45:30;13.20;99.90
2873;DHT22;1444;49.166;7.312;2023-05-07T05:47:57;13.30;99.90
2873;DHT22;1444;49.166;7.312;2023-05-07T05:50:23;13.30;99.90
2873;DHT22;1444;49.166;7.312;2023-05-07T05:52:50;13.60;99.90
2873;DHT22;1444;49.166;7.312;2023-05-07T05:55:17;13.70;99.90
2873;DHT22;1444;49.166;7.312;2023-05-07T05:57:45;13.80;99.90
2873;DHT22;1444;49.166;7.312;2023-05-07T06:00:12;14.00;99.90
2873;DHT22;1444;49.166;7.312;2023-05-07T06:02:39;14.20;99.90
2873;DHT22;1444;49.166;7.312;2023-05-07T06:05:06;14.30;99.90
2873;DHT22;1444;49.166;7.312;2023-05-07T06:07:33;14.40;99.90
2873;DHT22;1444;49.166;7.312;2023-05-07T06:10:00;14.60;99.90
2873;DHT22;1444;49.166;7.312;2023-05-07T06:12:27;14.70;99.90
2873;DHT22;1444;49.166;7.312;2023-05-07T06:14:55;14.90;99.90
2873;DHT22;1444;49.166;7.312;2023-05-07T06:17:21;15.00;99.90
2873;DHT22;1444;49.166;7.312;2023-05-07T06:19:48;15.40;99.90
2873;DHT22;1444;49.166;7.312;2023-05-07T06:22:14;15.50;99.90
2873;DHT22;1444;49.166;7.312;2023-05-07T06:24:41;15.90;99.90
2873;DHT22;1444;49.166;7.312;2023-05-07T06:27:08;16.00;99.90
2873;DHT22;1444;49.166;7.312;2023-05-07T06:29:35;16.30;99.90
2873;DHT22;1444;49.166;7.312;2023-05-07T06:32:09;16.40;99.90
2873;DHT22;1444;49.166;7.312;2023-05-07T06:34:37;16.40;99.90
2873;DHT22;1444;49.166;7.312;2023-05-07T06:37:03;16.60;99.90
2873;DHT22;1444;49.166;7.312;2023-05-07T06:39:30;16.70;99.90
2873;DHT22;1444;49.166;7.312;2023-05-07T06:41:57;16.80;99.90
2873;DHT22;1444;49.166;7.312;2023-05-07T06:44:24;16.80;99.90
2873;DHT22;1444;49.166;7.312;2023-05-07T06:46:50;16.90;99.90
2873;DHT22;1444;49.166;7.312;2023-05-07T06:49:18;17.20;99.90
2873;DHT22;1444;49.166;7.312;2023-05-07T06:51:45;17.40;99.90
2873;DHT22;1444;49.166;7.312;2023-05-07T06:54:12;17.70;99.90
2873;DHT22;1444;49.166;7.312;2023-05-07T06:56:39;17.90;99.90
2873;DHT22;1444;49.166;7.312;2023-05-07T06:59:06;18.20;99.90
2873;DHT22;1444;49.166;7.312;2023-05-07T07:01:32;18.50;99.90
2873;DHT22;1444;49.166;7.312;2023-05-07T07:03:59;18.80;99.90
2873;DHT22;1444;49.166;7.312;2023-05-07T07:06:27;19.10;99.90
2873;DHT22;1444;49.166;7.312;2023-05-07T07:08:55;19.40;99.90
2873;DHT22;1444;49.166;7.312;2023-05-07T07:11:21;19.50;99.90
2873;DHT22;1444;49.166;7.312;2023-05-07T07:13:48;19.70;99.90
2873;DHT22;1444;49.166;7.312;2023-05-07T07:16:16;19.70;99.90
2873;DHT22;1444;49.166;7.312;2023-05-07T07:18:42;19.80;99.90
2873;DHT22;1444;49.166;7.312;2023-05-07T07:21:09;19.90;99.70
2873;DHT22;1444;49.166;7.312;2023-05-07T07:23:37;20.00;99.90
2873;DHT22;1444;49.166;7.312;2023-05-07T07:26:04;20.10;99.90
2873;DHT22;1444;49.166;7.312;2023-05-07T07:28:32;20.20;99.50
2873;DHT22;1444;49.166;7.312;2023-05-07T07:30:58;20.30;98.90
2873;DHT22;1444;49.166;7.312;2023-05-07T07:33:25;20.40;98.60
2873;DHT22;1444;49.166;7.312;2023-05-07T07:35:52;20.80;97.60
2873;DHT22;1444;49.166;7.312;2023-05-07T07:38:18;20.90;97.90
2873;DHT22;1444;49.166;7.312;2023-05-07T07:40:48;21.20;97.90
2873;DHT22;1444;49.166;7.312;2023-05-07T07:43:15;21.20;97.60
2873;DHT22;1444;49.166;7.312;2023-05-07T07:45:42;21.40;97.50
2873;DHT22;1444;49.166;7.312;2023-05-07T07:48:09;21.50;96.80
2873;DHT22;1444;49.166;7.312;2023-05-07T07:50:35;21.60;97.20
2873;DHT22;1444;49.166;7.312;2023-05-07T07:53:02;21.90;96.60
2873;DHT22;1444;49.166;7.312;2023-05-07T07:55:29;21.90;96.70
2873;DHT22;1444;49.166;7.312;2023-05-07T07:57:58;22.00;96.20
2873;DHT22;1444;49.166;7.312;2023-05-07T08:00:24;22.10;96.70
2873;DHT22;1444;49.166;7.312;2023-05-07T08:02:51;22.30;97.20
2873;DHT22;1444;49.166;7.312;2023-05-07T08:05:18;22.60;96.50
2873;DHT22;1444;49.166;7.312;2023-05-07T08:07:45;23.00;96.10
2873;DHT22;1444;49.166;7.312;2023-05-07T08:10:17;23.00;96.30
2873;DHT22;1444;49.166;7.312;2023-05-07T08:12:46;23.00;94.30
2873;DHT22;1444;49.166;7.312;2023-05-07T08:15:15;23.10;95.10
2873;DHT22;1444;49.166;7.312;2023-05-07T08:17:42;23.30;95.50
2873;DHT22;1444;49.166;7.312;2023-05-07T08:20:09;23.50;96.00
2873;DHT22;1444;49.166;7.312;2023-05-07T08:22:36;23.50;95.60
2873;DHT22;1444;49.166;7.312;2023-05-07T08:25:03;23.70;94.80
2873;DHT22;1444;49.166;7.312;2023-05-07T08:27:30;23.70;94.50
2873;DHT22;1444;49.166;7.312;2023-05-07T08:29:57;23.80;94.50
2873;DHT22;1444;49.166;7.312;2023-05-07T08:32:25;23.80;93.80
2873;DHT22;1444;49.166;7.312;2023-05-07T08:34:53;23.90;94.40
2873;DHT22;1444;49.166;7.312;2023-05-07T08:37:20;24.00;94.40
2873;DHT22;1444;49.166;7.312;2023-05-07T08:39:47;24.00;94.30
2873;DHT22;1444;49.166;7.312;2023-05-07T08:42:16;23.90;93.40
2873;DHT22;1444;49.166;7.312;2023-05-07T08:44:45;24.10;94.60
2873;DHT22;1444;49.166;7.312;2023-05-07T08:47:12;24.00;94.00
2873;DHT22;1444;49.166;7.312;2023-05-07T08:49:40;24.40;94.40
2873;DHT22;1444;49.166;7.312;2023-05-07T08:52:07;24.40;94.70
2873;DHT22;1444;49.166;7.312;2023-05-07T08:54:33;24.70;94.60
2873;DHT22;1444;49.166;7.312;2023-05-07T08:57:02;24.80;93.90
2873;DHT22;1444;49.166;7.312;2023-05-07T08:59:29;24.80;94.00
2873;DHT22;1444;49.166;7.312;2023-05-07T09:01:56;25.00;94.00
2873;DHT22;1444;49.166;7.312;2023-05-07T09:04:23;25.10;93.80
2873;DHT22;1444;49.166;7.312;2023-05-07T09:06:51;25.40;94.10
2873;DHT22;1444;49.166;7.312;2023-05-07T09:09:17;25.60;92.70
2873;DHT22;1444;49.166;7.312;2023-05-07T09:11:44;25.60;91.90
2873;DHT22;1444;49.166;7.312;2023-05-07T09:14:11;25.20;91.30
2873;DHT22;1444;49.166;7.312;2023-05-07T09:16:38;25.10;91.40
2873;DHT22;1444;49.166;7.312;2023-05-07T09:19:05;24.90;91.70
2873;DHT22;1444;49.166;7.312;2023-05-07T09:21:31;24.30;92.00
2873;DHT22;1444;49.166;7.312;2023-05-07T09:23:59;24.20;92.80
2873;DHT22;1444;49.166;7.312;2023-05-07T09:26:26;24.20;92.70
2873;DHT22;1444;49.166;7.312;2023-05-07T09:28:53;24.20;93.70
2873;DHT22;1444;49.166;7.312;2023-05-07T09:31:20;24.40;93.00
2873;DHT22;1444;49.166;7.312;2023-05-07T09:33:48;24.40;92.30
2873;DHT22;1444;49.166;7.312;2023-05-07T09:36:15;24.60;92.20
2873;DHT22;1444;49.166;7.312;2023-05-07T09:42:11;24.90;93.90
2873;DHT22;1444;49.166;7.312;2023-05-07T09:44:38;24.90;93.10
2873;DHT22;1444;49.166;7.312;2023-05-07T09:47:06;24.90;92.80
2873;DHT22;1444;49.166;7.312;2023-05-07T09:49:37;24.80;91.70
2873;DHT22;1444;49.166;7.312;2023-05-07T09:52:05;25.00;92.80
2873;DHT22;1444;49.166;7.312;2023-05-07T09:54:36;25.30;93.70
2873;DHT22;1444;49.166;7.312;2023-05-07T09:57:04;25.60;92.00
2873;DHT22;1444;49.166;7.312;2023-05-07T09:59:34;25.90;93.40
2873;DHT22;1444;49.166;7.312;2023-05-07T10:02:03;26.20;92.80
2873;DHT22;1444;49.166;7.312;2023-05-07T10:04:30;26.40;92.60
2873;DHT22;1444;49.166;7.312;2023-05-07T10:06:58;26.60;92.20
2873;DHT22;1444;49.166;7.312;2023-05-07T10:09:26;26.60;92.50
2873;DHT22;1444;49.166;7.312;2023-05-07T10:11:54;26.60;90.20
2873;DHT22;1444;49.166;7.312;2023-05-07T10:14:21;26.30;93.00
2873;DHT22;1444;49.166;7.312;2023-05-07T10:16:49;26.40;92.00
2873;DHT22;1444;49.166;7.312;2023-05-07T10:19:16;26.60;92.10
2873;DHT22;1444;49.166;7.312;2023-05-07T10:21:47;26.80;91.80
2873;DHT22;1444;49.166;7.312;2023-05-07T10:24:20;27.00;91.40
2873;DHT22;1444;49.166;7.312;2023-05-07T10:26:51;27.30;90.80
2873;DHT22;1444;49.166;7.312;2023-05-07T10:29:25;27.30;88.50
2873;DHT22;1444;49.166;7.312;2023-05-07T10:31:59;27.40;90.50
2873;DHT22;1444;49.166;7.312;2023-05-07T10:34:36;27.50;90.30
2873;DHT22;1444;49.166;7.312;2023-05-07T10:37:04;27.50;88.60
2873;DHT22;1444;49.166;7.312;2023-05-07T10:39:31;27.50;88.90
2873;DHT22;1444;49.166;7.312;2023-05-07T10:42:07;27.60;90.40
2873;DHT22;1444;49.166;7.312;2023-05-07T10:44:34;27.60;89.40
2873;DHT22;1444;49.166;7.312;2023-05-07T10:47:08;27.60;89.70
2873;DHT22;1444;49.166;7.312;2023-05-07T10:49:36;27.10;88.60
2873;DHT22;1444;49.166;7.312;2023-05-07T10:52:13;27.10;89.20
2873;DHT22;1444;49.166;7.312;2023-05-07T10:54:41;27.10;89.70
2873;DHT22;1444;49.166;7.312;2023-05-07T10:57:33;27.20;90.20
2873;DHT22;1444;49.166;7.312;2023-05-07T11:00:00;27.00;88.90
2873;DHT22;1444;49.166;7.312;2023-05-07T11:03:05;26.70;89.20
2873;DHT22;1444;49.166;7.312;2023-05-07T11:05:33;26.50;88.60
2873;DHT22;1444;49.166;7.312;2023-05-07T11:08:01;26.40;89.10
2873;DHT22;1444;49.166;7.312;2023-05-07T11:10:49;26.40;89.50
2873;DHT22;1444;49.166;7.312;2023-05-07T11:13:16;26.10;87.60
2873;DHT22;1444;49.166;7.312;2023-05-07T11:15:45;26.10;87.40
2873;DHT22;1444;49.166;7.312;2023-05-07T11:18:14;26.00;87.30
2873;DHT22;1444;49.166;7.312;2023-05-07T11:20:59;25.80;89.20
2873;DHT22;1444;49.166;7.312;2023-05-07T11:26:47;25.10;86.60
2873;DHT22;1444;49.166;7.312;2023-05-07T11:29:15;24.90;89.80
2873;DHT22;1444;49.166;7.312;2023-05-07T11:31:42;24.90;90.30
2873;DHT22;1444;49.166;7.312;2023-05-07T11:34:11;24.90;90.50
2873;DHT22;1444;49.166;7.312;2023-05-07T11:36:42;24.70;91.20
2873;DHT22;1444;49.166;7.312;2023-05-07T11:39:27;24.80;91.00
2873;DHT22;1444;49.166;7.312;2023-05-07T11:41:54;24.90;91.40
2873;DHT22;1444;49.166;7.312;2023-05-07T11:44:20;24.80;91.00
2873;DHT22;1444;49.166;7.312;2023-05-07T11:46:48;24.30;90.50
2873;DHT22;1444;49.166;7.312;2023-05-07T11:49:17;23.90;91.10
2873;DHT22;1444;49.166;7.312;2023-05-07T11:51:43;23.70;91.50
2873;DHT22;1444;49.166;7.312;2023-05-07T11:54:15;23.60;92.20
2873;DHT22;1444;49.166;7.312;2023-05-07T11:56:43;23.40;91.80
2873;DHT22;1444;49.166;7.312;2023-05-07T11:59:10;23.40;92.00
2873;DHT22;1444;49.166;7.312;2023-05-07T12:01:37;23.20;91.90
2873;DHT22;1444;49.166;7.312;2023-05-07T12:04:04;23.30;92.30
2873;DHT22;1444;49.166;7.312;2023-05-07T12:06:36;23.20;93.00
2873;DHT22;1444;49.166;7.312;2023-05-07T12:09:04;23.30;92.50
2873;DHT22;1444;49.166;7.312;2023-05-07T12:11:32;23.20;92.80
2873;DHT22;1444;49.166;7.312;2023-05-07T12:14:00;23.20;92.50
2873;DHT22;1444;49.166;7.312;2023-05-07T12:16:26;22.90;92.40
2873;DHT22;1444;49.166;7.312;2023-05-07T12:18:54;23.00;92.90
2873;DHT22;1444;49.166;7.312;2023-05-07T12:21:21;22.70;92.80
2873;DHT22;1444;49.166;7.312;2023-05-07T12:23:51;22.30;92.90
2873;DHT22;1444;49.166;7.312;2023-05-07T12:26:19;22.00;93.40
2873;DHT22;1444;49.166;7.312;2023-05-07T12:28:47;21.80;94.10
2873;DHT22;1444;49.166;7.312;2023-05-07T12:31:14;21.50;94.40
2873;DHT22;1444;49.166;7.312;2023-05-07T12:33:41;21.50;94.70
2873;DHT22;1444;49.166;7.312;2023-05-07T12:36:08;21.40;95.10
2873;DHT22;1444;49.166;7.312;2023-05-07T12:38:36;21.40;95.80
2873;DHT22;1444;49.166;7.312;2023-05-07T12:41:06;21.20;96.20
2873;DHT22;1444;49.166;7.312;2023-05-07T12:43:33;21.00;96.50
2873;DHT22;1444;49.166;7.312;2023-05-07T12:46:01;20.80;96.80
2873;DHT22;1444;49.166;7.312;2023-05-07T12:48:28;20.90;97.10
2873;DHT22;1444;49.166;7.312;2023-05-07T12:50:56;21.00;97.50
2873;DHT22;1444;49.166;7.312;2023-05-07T12:53:24;21.00;98.50
2873;DHT22;1444;49.166;7.312;2023-05-07T12:55:53;21.00;97.10
2873;DHT22;1444;49.166;7.312;2023-05-07T12:58:24;21.10;97.10
2873;DHT22;1444;49.166;7.312;2023-05-07T13:00:51;21.20;97.10
2873;DHT22;1444;49.166;7.312;2023-05-07T13:03:22;21.30;97.90
2873;DHT22;1444;49.166;7.312;2023-05-07T13:05:50;21.60;97.10
2873;DHT22;1444;49.166;7.312;2023-05-07T13:08:27;21.60;96.30
2873;DHT22;1444;49.166;7.312;2023-05-07T13:10:55;21.50;96.40
2873;DHT22;1444;49.166;7.312;2023-05-07T13:13:23;21.50;97.50
2873;DHT22;1444;49.166;7.312;2023-05-07T13:15:50;21.50;97.20
2873;DHT22;1444;49.166;7.312;2023-05-07T13:18:17;21.60;97.00
2873;DHT22;1444;49.166;7.312;2023-05-07T13:20:43;21.60;96.80
2873;DHT22;1444;49.166;7.312;2023-05-07T13:23:10;21.50;97.40
2873;DHT22;1444;49.166;7.312;2023-05-07T13:25:37;21.60;96.90
2873;DHT22;1444;49.166;7.312;2023-05-07T13:28:04;21.60;97.30
2873;DHT22;1444;49.166;7.312;2023-05-07T13:30:32;21.60;97.30
2873;DHT22;1444;49.166;7.312;2023-05-07T13:32:59;21.60;97.50
2873;DHT22;1444;49.166;7.312;2023-05-07T13:35:26;21.60;96.50
2873;DHT22;1444;49.166;7.312;2023-05-07T13:37:53;21.60;97.10
2873;DHT22;1444;49.166;7.312;2023-05-07T13:40:20;21.60;96.90
2873;DHT22;1444;49.166;7.312;2023-05-07T13:42:47;21.60;97.20
2873;DHT22;1444;49.166;7.312;2023-05-07T13:45:14;21.70;97.60
2873;DHT22;1444;49.166;7.312;2023-05-07T13:47:42;21.70;97.90
2873;DHT22;1444;49.166;7.312;2023-05-07T13:50:09;21.70;97.00
2873;DHT22;1444;49.166;7.312;2023-05-07T13:52:39;21.70;97.30
2873;DHT22;1444;49.166;7.312;2023-05-07T13:55:06;21.50;96.90
2873;DHT22;1444;49.166;7.312;2023-05-07T13:57:33;21.50;97.10
2873;DHT22;1444;49.166;7.312;2023-05-07T14:00:00;21.30;97.50
2873;DHT22;1444;49.166;7.312;2023-05-07T14:02:27;21.20;97.90
2873;DHT22;1444;49.166;7.312;2023-05-07T14:04:55;21.10;98.00
2873;DHT22;1444;49.166;7.312;2023-05-07T14:07:21;21.00;98.10
2873;DHT22;1444;49.166;7.312;2023-05-07T14:09:48;20.90;98.00
2873;DHT22;1444;49.166;7.312;2023-05-07T14:12:15;20.80;98.60
2873;DHT22;1444;49.166;7.312;2023-05-07T14:14:41;20.80;98.40
2873;DHT22;1444;49.166;7.312;2023-05-07T14:17:08;20.80;98.90
2873;DHT22;1444;49.166;7.312;2023-05-07T14:19:35;20.90;98.40
2873;DHT22;1444;49.166;7.312;2023-05-07T14:22:03;21.10;99.10
2873;DHT22;1444;49.166;7.312;2023-05-07T14:24:29;21.10;98.80
2873;DHT22;1444;49.166;7.312;2023-05-07T14:26:56;21.20;98.60
2873;DHT22;1444;49.166;7.312;2023-05-07T14:29:23;21.20;98.50
2873;DHT22;1444;49.166;7.312;2023-05-07T14:31:49;21.40;99.00
2873;DHT22;1444;49.166;7.312;2023-05-07T14:34:16;21.50;99.10
2873;DHT22;1444;49.166;7.312;2023-05-07T14:36:43;21.60;98.50
2873;DHT22;1444;49.166;7.312;2023-05-07T14:39:11;21.80;98.70
2873;DHT22;1444;49.166;7.312;2023-05-07T14:41:37;21.90;98.90
2873;DHT22;1444;49.166;7.312;2023-05-07T14:44:04;21.90;98.40
2873;DHT22;1444;49.166;7.312;2023-05-07T14:46:31;22.10;98.00
2873;DHT22;1444;49.166;7.312;2023-05-07T14:48:57;22.10;98.60
2873;DHT22;1444;49.166;7.312;2023-05-07T14:51:24;22.20;97.90
2873;DHT22;1444;49.166;7.312;2023-05-07T14:53:53;22.20;97.70
2873;DHT22;1444;49.166;7.312;2023-05-07T14:56:21;22.20;97.40
2873;DHT22;1444;49.166;7.312;2023-05-07T14:58:48;22.20;97.20
2873;DHT22;1444;49.166;7.312;2023-05-07T15:01:15;22.10;97.50
2873;DHT22;1444;49.166;7.312;2023-05-07T15:03:41;22.20;98.00
2873;DHT22;1444;49.166;7.312;2023-05-07T15:06:08;22.30;97.50
2873;DHT22;1444;49.166;7.312;2023-05-07T15:08:35;22.30;97.80
2873;DHT22;1444;49.166;7.312;2023-05-07T15:11:02;22.40;97.00
2873;DHT22;1444;49.166;7.312;2023-05-07T15:13:30;22.40;97.00
2873;DHT22;1444;49.166;7.312;2023-05-07T15:15:57;22.40;97.50
2873;DHT22;1444;49.166;7.312;2023-05-07T15:18:24;22.40;97.30
2873;DHT22;1444;49.166;7.312;2023-05-07T15:20:50;22.30;96.90
2873;DHT22;1444;49.166;7.312;2023-05-07T15:23:17;22.40;97.50
2873;DHT22;1444;49.166;7.312;2023-05-07T15:25:44;22.40;96.70
2873;DHT22;1444;49.166;7.312;2023-05-07T15:28:10;22.50;96.40
2873;DHT22;1444;49.166;7.312;2023-05-07T15:30:38;22.50;96.60
2873;DHT22;1444;49.166;7.312;2023-05-07T15:33:05;22.60;96.30
2873;DHT22;1444;49.166;7.312;2023-05-07T15:35:32;22.60;96.90
2873;DHT22;1444;49.166;7.312;2023-05-07T15:37:59;22.70;96.80
2873;DHT22;1444;49.166;7.312;2023-05-07T15:40:28;22.70;96.80
2873;DHT22;1444;49.166;7.312;2023-05-07T15:42:56;22.70;96.50
2873;DHT22;1444;49.166;7.312;2023-05-07T15:45:23;22.70;96.50
2873;DHT22;1444;49.166;7.312;2023-05-07T15:47:51;22.60;96.30
2873;DHT22;1444;49.166;7.312;2023-05-07T15:50:18;22.60;96.20
2873;DHT22;1444;49.166;7.312;2023-05-07T15:52:44;22.60;96.70
2873;DHT22;1444;49.166;7.312;2023-05-07T15:55:12;22.70;96.30
2873;DHT22;1444;49.166;7.312;2023-05-07T15:57:39;22.70;95.80
2873;DHT22;1444;49.166;7.312;2023-05-07T16:00:06;22.60;96.00
2873;DHT22;1444;49.166;7.312;2023-05-07T16:02:36;22.60;96.10
2873;DHT22;1444;49.166;7.312;2023-05-07T16:05:06;22.60;96.00
2873;DHT22;1444;49.166;7.312;2023-05-07T16:07:35;22.60;96.70
2873;DHT22;1444;49.166;7.312;2023-05-07T16:10:01;22.50;96.80
2873;DHT22;1444;49.166;7.312;2023-05-07T16:12:28;22.40;96.90